Thursday, June 21, 2018, 4:12 PM GMT
Back to Local

CYCX, Gagetown Can-Mil

Location: , , Canada Lat: 45.833
Local Time: 4:12 PM GMT (16:12 GMT) Lon: -66.433
Time Zone: GMT Elev: 167 ft

Show me the last for .
Show Coded

Time T Td Feel RH Dir Speed Gust Alt SLP Vis Weather Sky Remarks
2018-06-21 15:00 64 46 - 52 290° 12 - 29.76 29.76 15 FEW041 None
2018-06-21 14:00 61 46 - 59 290° 7 - 29.76 29.76 15 FEW034 None
2018-06-21 13:00 61 48 - 63 300° 9 - 29.75 29.75 15 CLR None
2018-06-21 12:00 59 50 - 72 300° 6 - 29.74 29.74 15 FEW080 None
2018-06-21 11:00 55 48 - 76 320° 7 - 29.72 29.72 15 FEW082 None
2018-06-21 10:00 54 50 - 87 310° 8 - 29.70 29.70 15 FEW074 None
2018-06-21 09:00 55 54 - 93 320° 6 - 29.68 29.68 15 FEW045 SCT090 None
2018-06-21 08:00 59 57 - 93 290° 6 - 29.66 29.66 15 FEW045 SCT090 BKN120 None
2018-06-21 07:10 59 59 - 100 250° 6 - 29.65 29.66 12 FEW045 BKN120 None
2018-06-21 07:00 59 59 - 100 240° 3 - 29.65 29.65 12 -SHRA FEW045 SCT074 OVC120 None
2018-06-21 06:00 59 59 - 100 250° 2 - 29.64 29.65 12 -SHRA FEW045 OVC074 None
2018-06-21 05:00 59 59 - 100 270° 5 - 29.64 29.65 12 -SHRA SCT035 OVC050 None
2018-06-21 04:00 59 57 - 93 190° 5 - 29.64 29.64 9 -SHRA OVC030 None
2018-06-21 03:42 59 57 - 93 190° 5 - 29.64 29.65 6 -SHRA BR BKN045 OVC070 None
2018-06-21 03:17 61 57 - 87 240° 5 - 29.66 29.66 3 SHRA BR BKN045 OVC070 None
2018-06-21 03:00 61 57 - 87 300° 5 - 29.67 29.67 6 -SHRA BR BKN034 OVC070 None
2018-06-21 02:09 61 59 - 93 300° 7 - 29.67 29.67 6 -SHRA BR BKN022 OVC065 None
2018-06-21 02:00 61 59 - 93 300° 8 - 29.67 29.67 6 -SHRA BR SCT022 OVC065 None
2018-06-21 01:00 70 52 - 52 190° 6 - 29.62 29.62 15 -SHRA BKN070 None
2018-06-21 00:00 72 52 76 49 200° 8 - 29.60 29.60 15 BKN082 BKN240 None
2018-06-20 23:00 77 52 78 41 270° 7 - 29.59 29.59 15 FEW075 SCT240 None
2018-06-20 22:00 79 52 - 39 250° 12 21 29.59 29.59 15 FEW055 BKN075 BKN240 None
2018-06-20 21:00 79 50 - 36 250° 13 - 29.60 29.60 15 BKN055 BKN080 None
2018-06-20 20:00 81 48 - 32 240° 13 23 29.60 29.61 15 SCT055 SCT080 SCT240 None
2018-06-20 19:00 81 50 - 34 260° 9 22 29.62 29.62 15 SCT065 SCT240 None
2018-06-20 18:00 81 48 - 32 250° 18 - 29.63 29.63 15 FEW065 FEW086 None
2018-06-20 17:00 79 50 - 36 250° 10 21 29.65 29.66 15 FEW065 FEW086 FEW240 None

Support USWX by starting your Amazon purchase here.